createdAt,value
2023-05-24T00:00:37.296Z,19.60
2023-05-24T00:03:10.029Z,19.60
2023-05-24T00:05:43.074Z,19.60
2023-05-24T00:08:16.730Z,19.60
2023-05-24T00:10:49.332Z,19.60
2023-05-24T00:13:21.932Z,19.60
2023-05-24T00:15:54.508Z,19.60
2023-05-24T00:18:27.148Z,19.60
2023-05-24T00:21:02.881Z,19.50
2023-05-24T00:23:37.379Z,19.60
2023-05-24T00:26:09.995Z,19.50
2023-05-24T00:28:45.601Z,19.60
2023-05-24T00:31:18.238Z,19.50
2023-05-24T00:33:50.975Z,19.50
2023-05-24T00:36:24.752Z,19.50
2023-05-24T00:38:57.296Z,19.50
2023-05-24T00:41:29.820Z,19.50
2023-05-24T00:44:02.511Z,19.50
2023-05-24T00:46:35.579Z,19.50
2023-05-24T00:49:08.757Z,19.50
2023-05-24T00:51:41.366Z,19.50
2023-05-24T00:54:15.425Z,19.50
2023-05-24T00:56:49.096Z,19.50
2023-05-24T00:59:21.838Z,19.40
2023-05-24T01:01:55.726Z,19.40
2023-05-24T01:04:29.194Z,19.40
2023-05-24T01:07:06.579Z,19.40
2023-05-24T01:09:59.877Z,19.40
2023-05-24T01:13:05.939Z,19.30
2023-05-24T01:15:47.733Z,19.40
2023-05-24T01:18:35.351Z,19.30
2023-05-24T01:21:17.657Z,19.30
2023-05-24T01:23:50.163Z,19.30
2023-05-24T01:26:38.756Z,19.30
2023-05-24T01:29:12.673Z,19.30
2023-05-24T01:31:45.933Z,19.30
2023-05-24T01:34:18.703Z,19.30
2023-05-24T01:36:53.032Z,19.30
2023-05-24T01:39:29.381Z,19.30
2023-05-24T01:42:24.321Z,19.30
2023-05-24T01:44:59.741Z,19.20
2023-05-24T01:48:02.535Z,19.30
2023-05-24T01:50:41.406Z,19.20
2023-05-24T01:53:18.380Z,19.20
2023-05-24T01:55:53.768Z,19.20
2023-05-24T01:58:27.312Z,19.20
2023-05-24T02:01:01.227Z,19.20
2023-05-24T02:03:34.481Z,19.20
2023-05-24T02:06:08.653Z,19.20
2023-05-24T02:08:41.020Z,19.20
2023-05-24T02:11:13.535Z,19.10
2023-05-24T02:13:46.258Z,19.10
2023-05-24T02:16:19.205Z,19.10
2023-05-24T02:18:51.928Z,19.10
2023-05-24T02:21:25.622Z,19.10
2023-05-24T02:23:58.261Z,19.10
2023-05-24T02:26:30.969Z,19.00
2023-05-24T02:29:04.062Z,19.10
2023-05-24T02:31:36.917Z,19.10
2023-05-24T02:34:12.118Z,19.00
2023-05-24T02:36:46.074Z,19.10
2023-05-24T02:39:18.644Z,19.00
2023-05-24T02:41:51.222Z,19.00
2023-05-24T02:44:24.010Z,19.00
2023-05-24T02:46:56.472Z,19.00
2023-05-24T02:49:29.157Z,19.00
2023-05-24T02:52:01.746Z,19.00
2023-05-24T02:54:34.341Z,19.00
2023-05-24T02:57:06.977Z,18.90
2023-05-24T02:59:39.904Z,18.90
2023-05-24T03:02:15.185Z,18.90
2023-05-24T03:04:48.031Z,18.90
2023-05-24T03:07:20.725Z,18.90
2023-05-24T03:09:53.347Z,18.90
2023-05-24T03:12:26.171Z,18.90
2023-05-24T03:14:58.828Z,18.90
2023-05-24T03:17:31.556Z,18.90
2023-05-24T03:20:06.125Z,18.90
2023-05-24T03:22:39.052Z,18.80
2023-05-24T03:25:11.637Z,18.80
2023-05-24T03:27:44.310Z,18.90
2023-05-24T03:30:17.979Z,18.80
2023-05-24T03:33:00.480Z,18.80
2023-05-24T03:35:33.053Z,18.80
2023-05-24T03:38:05.686Z,18.80
2023-05-24T03:40:40.414Z,18.80
2023-05-24T03:43:18.780Z,18.80
2023-05-24T03:46:02.300Z,18.80
2023-05-24T03:48:34.886Z,18.80
2023-05-24T03:51:09.441Z,18.80
2023-05-24T03:53:42.100Z,18.80
2023-05-24T03:56:15.229Z,18.80
2023-05-24T03:58:47.900Z,18.80
2023-05-24T04:01:32.703Z,18.70
2023-05-24T04:04:06.451Z,18.70
2023-05-24T04:06:42.122Z,18.80
2023-05-24T04:09:15.055Z,18.80
2023-05-24T04:11:47.546Z,18.80
2023-05-24T04:14:20.134Z,18.80
2023-05-24T04:16:53.944Z,18.80
2023-05-24T04:19:26.589Z,18.80
2023-05-24T04:21:59.129Z,18.80
2023-05-24T04:24:31.788Z,18.90
2023-05-24T04:27:04.428Z,18.90
2023-05-24T04:29:37.519Z,18.90
2023-05-24T04:32:11.433Z,19.00
2023-05-24T04:34:44.415Z,19.00
2023-05-24T04:37:17.690Z,19.00
2023-05-24T04:39:52.485Z,19.10
2023-05-24T04:42:25.414Z,19.10
2023-05-24T04:44:59.008Z,19.20
2023-05-24T04:47:31.702Z,19.30
2023-05-24T04:50:04.868Z,19.30
2023-05-24T04:52:37.263Z,19.40
2023-05-24T04:55:10.502Z,19.60
2023-05-24T04:57:42.999Z,19.70
2023-05-24T05:00:16.043Z,19.90
2023-05-24T05:02:48.905Z,20.00
2023-05-24T05:05:21.906Z,20.10
2023-05-24T05:07:54.486Z,20.20
2023-05-24T05:10:27.505Z,20.20
2023-05-24T05:12:59.942Z,20.30
2023-05-24T05:15:32.940Z,20.30
2023-05-24T05:18:05.574Z,20.30
2023-05-24T05:20:38.304Z,20.40
2023-05-24T05:23:10.952Z,20.50
2023-05-24T05:25:43.647Z,20.60
2023-05-24T05:28:16.228Z,20.80
2023-05-24T05:30:48.900Z,21.00
2023-05-24T05:33:21.529Z,21.10
2023-05-24T05:35:55.059Z,21.30
2023-05-24T05:38:27.675Z,21.40
2023-05-24T05:41:00.280Z,21.40
2023-05-24T05:43:32.875Z,21.40
2023-05-24T05:46:05.676Z,21.40
2023-05-24T05:48:38.329Z,21.50
2023-05-24T05:51:11.222Z,21.50
2023-05-24T05:53:43.802Z,21.60
2023-05-24T05:56:16.760Z,21.70
2023-05-24T05:58:49.231Z,21.70
2023-05-24T06:01:21.792Z,21.90
2023-05-24T06:03:54.519Z,22.00
2023-05-24T06:06:27.177Z,22.20
2023-05-24T06:09:00.900Z,22.30
2023-05-24T06:11:33.647Z,22.40
2023-05-24T06:14:06.357Z,22.40
2023-05-24T06:16:43.770Z,22.40
2023-05-24T06:19:17.171Z,22.40
2023-05-24T06:21:50.926Z,22.40
2023-05-24T06:24:23.592Z,22.40
2023-05-24T06:26:56.315Z,22.30
2023-05-24T06:29:28.853Z,22.40
2023-05-24T06:32:01.610Z,22.30
2023-05-24T06:34:34.227Z,22.40
2023-05-24T06:37:10.561Z,22.40
2023-05-24T06:39:43.238Z,22.40
2023-05-24T06:42:15.924Z,22.40
2023-05-24T06:44:51.730Z,22.40
2023-05-24T06:47:24.582Z,22.40
2023-05-24T06:49:57.466Z,22.50
2023-05-24T06:52:29.989Z,22.40
2023-05-24T06:55:02.739Z,22.50
2023-05-24T06:57:35.281Z,22.50
2023-05-24T07:00:12.329Z,22.50
2023-05-24T07:02:45.069Z,22.60
2023-05-24T07:05:17.800Z,22.60
2023-05-24T07:07:50.332Z,22.60
2023-05-24T07:10:22.865Z,22.70
2023-05-24T07:12:55.756Z,22.70
2023-05-24T07:15:28.403Z,22.80
2023-05-24T07:18:01.046Z,22.90
2023-05-24T07:20:34.046Z,22.90
2023-05-24T07:23:07.426Z,23.00
2023-05-24T07:25:39.946Z,23.00
2023-05-24T07:28:14.618Z,23.10
2023-05-24T07:30:47.378Z,23.00
2023-05-24T07:33:20.241Z,23.10
2023-05-24T07:35:52.832Z,23.10
2023-05-24T07:38:25.545Z,23.10
2023-05-24T07:41:01.444Z,23.10
2023-05-24T07:43:34.181Z,23.10
2023-05-24T07:46:06.924Z,23.10
2023-05-24T07:48:39.630Z,23.10
2023-05-24T07:51:12.762Z,23.10
2023-05-24T07:53:45.446Z,23.10
2023-05-24T07:56:18.139Z,23.10
2023-05-24T07:58:52.506Z,23.10
2023-05-24T08:01:25.231Z,23.10
2023-05-24T08:03:58.591Z,23.10
2023-05-24T08:06:33.182Z,23.10
2023-05-24T08:09:06.334Z,23.10
2023-05-24T08:11:38.737Z,23.20
2023-05-24T08:14:11.987Z,23.20
2023-05-24T08:16:44.725Z,23.10
2023-05-24T08:19:17.446Z,23.10
2023-05-24T08:21:52.915Z,23.20
2023-05-24T08:24:25.842Z,23.20
2023-05-24T08:26:58.260Z,23.20
2023-05-24T08:29:30.923Z,23.20
2023-05-24T08:32:04.418Z,23.20
2023-05-24T08:34:37.917Z,23.20
2023-05-24T08:37:10.914Z,23.20
2023-05-24T08:39:43.894Z,23.30
2023-05-24T08:42:16.621Z,23.20
2023-05-24T08:44:53.963Z,23.30
2023-05-24T08:47:29.482Z,23.30
2023-05-24T08:50:02.903Z,23.30
2023-05-24T08:52:38.500Z,23.30
2023-05-24T08:55:12.301Z,23.30
2023-05-24T08:57:46.364Z,23.30
2023-05-24T09:00:19.751Z,23.40
2023-05-24T09:02:53.079Z,23.40
2023-05-24T09:05:26.638Z,23.40
2023-05-24T09:08:01.434Z,23.40
2023-05-24T09:10:44.952Z,23.30
2023-05-24T09:13:19.728Z,23.30
2023-05-24T09:15:54.062Z,23.30
2023-05-24T09:18:26.878Z,23.30
2023-05-24T09:20:59.781Z,23.30
2023-05-24T09:23:33.147Z,23.30
2023-05-24T09:26:10.052Z,23.30
2023-05-24T09:28:42.771Z,23.40
2023-05-24T09:31:15.387Z,23.40
2023-05-24T09:33:50.189Z,23.40
2023-05-24T09:36:23.629Z,23.40
2023-05-24T09:39:10.581Z,23.40
2023-05-24T09:41:45.802Z,23.40
2023-05-24T09:44:18.393Z,23.30
2023-05-24T09:46:51.752Z,23.30
2023-05-24T09:49:24.435Z,23.30
2023-05-24T09:51:57.220Z,23.20
2023-05-24T09:54:32.154Z,23.20
2023-05-24T09:57:07.222Z,23.20
2023-05-24T09:59:41.590Z,23.20
2023-05-24T10:02:14.269Z,23.30
2023-05-24T10:04:47.398Z,23.20
2023-05-24T10:07:20.376Z,23.20
2023-05-24T10:09:53.477Z,23.10
2023-05-24T10:12:27.355Z,23.20
2023-05-24T10:15:00.877Z,23.20
2023-05-24T10:17:33.569Z,23.20
2023-05-24T10:20:12.626Z,23.10
2023-05-24T10:22:47.117Z,23.10
2023-05-24T10:25:26.213Z,23.10
2023-05-24T10:28:01.842Z,23.20
2023-05-24T10:31:03.441Z,23.20
2023-05-24T10:33:40.366Z,23.20
2023-05-24T10:36:16.281Z,23.20
2023-05-24T10:38:48.967Z,23.10
2023-05-24T10:41:22.671Z,23.10
2023-05-24T10:44:09.263Z,23.00
2023-05-24T10:47:10.721Z,22.90
2023-05-24T10:49:52.669Z,22.90
2023-05-24T10:52:45.484Z,22.80
2023-05-24T10:55:20.326Z,22.80
2023-05-24T10:57:52.898Z,22.70
2023-05-24T11:03:09.381Z,22.80
2023-05-24T11:05:50.980Z,22.70
2023-05-24T11:08:26.122Z,22.70
2023-05-24T11:11:23.907Z,22.60
2023-05-24T11:14:01.590Z,22.60
2023-05-24T11:16:39.543Z,22.50
2023-05-24T11:19:24.252Z,22.50
2023-05-24T11:22:00.855Z,22.40
2023-05-24T11:24:34.434Z,22.40
2023-05-24T11:27:07.499Z,22.40
2023-05-24T11:29:46.477Z,22.40
2023-05-24T11:32:24.341Z,22.40
2023-05-24T11:34:57.047Z,22.30
2023-05-24T11:40:26.656Z,22.30
2023-05-24T11:42:59.336Z,22.30
2023-05-24T11:45:32.859Z,22.30
2023-05-24T11:48:06.820Z,22.20
2023-05-24T11:53:21.330Z,22.30
2023-05-24T11:55:54.793Z,22.20
2023-05-24T11:58:41.615Z,22.20
2023-05-24T12:01:27.715Z,22.20
2023-05-24T12:04:01.510Z,22.10
2023-05-24T12:06:44.904Z,22.10
2023-05-24T12:09:19.030Z,22.00
2023-05-24T12:11:52.929Z,22.00
2023-05-24T12:14:31.418Z,22.00
2023-05-24T12:17:08.803Z,22.00
2023-05-24T12:19:47.181Z,22.00
2023-05-24T12:22:19.853Z,22.00
2023-05-24T12:24:53.038Z,22.00
2023-05-24T12:27:31.100Z,22.00
2023-05-24T12:30:10.457Z,22.00
2023-05-24T12:32:43.189Z,22.00
2023-05-24T12:35:18.785Z,21.90
2023-05-24T12:37:58.439Z,21.90
2023-05-24T12:40:38.506Z,21.80
2023-05-24T12:43:16.353Z,21.80
2023-05-24T12:45:49.935Z,21.90
2023-05-24T12:48:23.690Z,21.90
2023-05-24T12:50:56.134Z,21.90
2023-05-24T12:53:28.810Z,21.90
2023-05-24T12:56:01.918Z,21.90
2023-05-24T12:58:34.526Z,21.90
2023-05-24T13:01:07.176Z,21.90
2023-05-24T13:03:40.137Z,21.90
2023-05-24T13:06:12.547Z,21.80
2023-05-24T13:08:45.545Z,21.80
2023-05-24T13:11:18.072Z,21.80
2023-05-24T13:13:50.653Z,21.70
2023-05-24T13:16:23.487Z,21.70
2023-05-24T13:18:56.307Z,21.70
2023-05-24T13:21:29.564Z,21.60
2023-05-24T13:24:02.141Z,21.60
2023-05-24T13:26:38.493Z,21.60
2023-05-24T13:31:46.834Z,21.60
2023-05-24T13:34:19.800Z,21.60
2023-05-24T13:36:53.555Z,21.50
2023-05-24T13:39:28.181Z,21.50
2023-05-24T13:42:03.791Z,21.50
2023-05-24T13:44:36.614Z,21.50
2023-05-24T13:47:10.105Z,21.50
2023-05-24T13:49:43.182Z,21.40
2023-05-24T13:52:15.767Z,21.40
2023-05-24T13:54:48.742Z,21.40
2023-05-24T13:57:26.536Z,21.40
2023-05-24T14:00:02.484Z,21.30
2023-05-24T14:02:39.416Z,21.40
2023-05-24T14:05:28.388Z,21.40
2023-05-24T14:08:06.904Z,21.40
2023-05-24T14:10:39.760Z,21.40
2023-05-24T14:13:32.193Z,21.40
2023-05-24T14:16:06.635Z,21.40
2023-05-24T14:18:43.334Z,21.30
2023-05-24T14:21:16.134Z,21.30
2023-05-24T14:23:48.798Z,21.30
2023-05-24T14:26:24.086Z,21.30
2023-05-24T14:28:57.215Z,21.30
2023-05-24T14:31:29.814Z,21.30
2023-05-24T14:34:02.516Z,21.30
2023-05-24T14:36:35.164Z,21.30
2023-05-24T14:39:08.463Z,21.30
2023-05-24T14:41:41.184Z,21.40
2023-05-24T14:44:13.911Z,21.40
2023-05-24T14:46:47.694Z,21.40
2023-05-24T14:49:20.712Z,21.30
2023-05-24T14:51:53.217Z,21.30
2023-05-24T14:54:27.985Z,21.20
2023-05-24T14:57:01.269Z,21.20
2023-05-24T14:59:34.036Z,21.20
2023-05-24T15:02:07.355Z,21.10
2023-05-24T15:04:39.947Z,21.10
2023-05-24T15:07:37.314Z,21.00
2023-05-24T15:10:10.069Z,21.00
2023-05-24T15:12:42.606Z,21.00
2023-05-24T15:15:15.340Z,21.00
2023-05-24T15:17:48.655Z,21.00
2023-05-24T15:20:21.734Z,21.00
2023-05-24T15:22:54.511Z,21.00
2023-05-24T15:25:27.330Z,21.00
2023-05-24T15:27:59.896Z,21.00
2023-05-24T15:30:32.569Z,21.00
2023-05-24T15:33:05.157Z,20.90
2023-05-24T15:35:38.080Z,20.90
2023-05-24T15:38:10.840Z,20.90
2023-05-24T15:40:43.851Z,20.90
2023-05-24T15:43:19.254Z,20.80
2023-05-24T15:45:51.785Z,20.80
2023-05-24T15:48:24.553Z,20.80
2023-05-24T15:51:47.013Z,20.80
2023-05-24T15:53:49.866Z,20.80
2023-05-24T15:56:23.755Z,20.80
2023-05-24T15:58:56.356Z,20.70
2023-05-24T16:01:29.090Z,20.70
2023-05-24T16:04:01.807Z,20.70
2023-05-24T16:06:34.398Z,20.70
2023-05-24T16:09:07.421Z,20.60
2023-05-24T16:11:39.881Z,20.60
2023-05-24T16:14:12.605Z,20.60
2023-05-24T16:16:45.552Z,20.60
2023-05-24T16:19:18.023Z,20.60
2023-05-24T16:21:50.599Z,20.60
2023-05-24T16:24:23.180Z,20.50
2023-05-24T16:27:00.199Z,20.50
2023-05-24T16:29:32.704Z,20.60
2023-05-24T16:32:05.626Z,20.60
2023-05-24T16:34:54.898Z,20.50
2023-05-24T16:37:27.922Z,20.60
2023-05-24T16:40:00.507Z,20.50
2023-05-24T16:42:33.054Z,20.60
2023-05-24T16:45:06.645Z,20.50
2023-05-24T16:47:39.383Z,20.50
2023-05-24T16:50:15.838Z,20.50
2023-05-24T16:52:48.661Z,20.50
2023-05-24T16:55:21.593Z,20.50
2023-05-24T16:57:54.251Z,20.50
2023-05-24T17:00:27.231Z,20.50
2023-05-24T17:03:00.673Z,20.50
2023-05-24T17:05:33.319Z,20.40
2023-05-24T17:08:06.989Z,20.40
2023-05-24T17:10:39.761Z,20.40
2023-05-24T17:13:12.465Z,20.40
2023-05-24T17:15:45.017Z,20.40
2023-05-24T17:18:18.202Z,20.40
2023-05-24T17:20:51.483Z,20.40
2023-05-24T17:23:29.137Z,20.40
2023-05-24T17:26:02.993Z,20.40
2023-05-24T17:28:36.550Z,20.50
2023-05-24T17:31:09.832Z,20.50
2023-05-24T17:33:42.362Z,20.40
2023-05-24T17:36:14.984Z,20.40
2023-05-24T17:38:47.644Z,20.40
2023-05-24T17:41:20.255Z,20.40
2023-05-24T17:43:52.872Z,20.40
2023-05-24T17:46:25.640Z,20.30
2023-05-24T17:48:58.632Z,20.40
2023-05-24T17:51:31.795Z,20.30
2023-05-24T17:54:04.159Z,20.30
2023-05-24T17:56:36.680Z,20.30
2023-05-24T17:59:10.262Z,20.30
2023-05-24T18:01:44.203Z,20.30
2023-05-24T18:04:16.931Z,20.30
2023-05-24T18:06:49.653Z,20.30
2023-05-24T18:09:22.417Z,20.20
2023-05-24T18:11:55.040Z,20.20
2023-05-24T18:14:27.793Z,20.20
2023-05-24T18:17:01.841Z,20.20
2023-05-24T18:19:34.438Z,20.20
2023-05-24T18:22:06.944Z,20.20
2023-05-24T18:24:39.626Z,20.20
2023-05-24T18:27:12.148Z,20.20
2023-05-24T18:29:44.868Z,20.20
2023-05-24T18:32:17.643Z,20.20
2023-05-24T18:34:50.251Z,20.20
2023-05-24T18:37:23.346Z,20.20
2023-05-24T18:39:56.230Z,20.20
2023-05-24T18:42:28.809Z,20.10
2023-05-24T18:45:01.399Z,20.10
2023-05-24T18:47:34.021Z,20.10
2023-05-24T18:50:08.035Z,20.10
2023-05-24T18:52:40.640Z,20.10
2023-05-24T18:55:13.425Z,20.10
2023-05-24T18:57:46.167Z,20.10
2023-05-24T19:00:23.008Z,20.10
2023-05-24T19:02:55.929Z,20.10
2023-05-24T19:05:28.489Z,20.10
2023-05-24T19:08:01.315Z,20.10
2023-05-24T19:10:34.131Z,20.10
2023-05-24T19:13:07.195Z,20.10
2023-05-24T19:15:39.610Z,20.10
2023-05-24T19:18:12.198Z,20.00
2023-05-24T19:20:44.727Z,20.10
2023-05-24T19:23:17.359Z,20.10
2023-05-24T19:25:50.713Z,20.00
2023-05-24T19:28:24.370Z,20.10
2023-05-24T19:30:56.947Z,20.10
2023-05-24T19:33:29.609Z,20.10
2023-05-24T19:36:02.251Z,20.00
2023-05-24T19:38:34.808Z,20.10
2023-05-24T19:41:07.437Z,20.10
2023-05-24T19:43:40.151Z,20.00
2023-05-24T19:46:14.882Z,20.10
2023-05-24T19:48:49.852Z,20.00
2023-05-24T19:51:22.646Z,20.00
2023-05-24T19:53:55.279Z,20.00
2023-05-24T19:56:28.017Z,20.00
2023-05-24T19:59:00.801Z,20.00
2023-05-24T20:01:33.462Z,20.00
2023-05-24T20:04:06.152Z,20.00
2023-05-24T20:06:38.913Z,20.00
2023-05-24T20:09:11.689Z,20.00
2023-05-24T20:11:44.343Z,19.90
2023-05-24T20:14:18.308Z,19.90
2023-05-24T20:16:50.870Z,20.00
2023-05-24T20:19:23.841Z,20.00
2023-05-24T20:21:57.592Z,20.00
2023-05-24T20:24:33.170Z,20.00
2023-05-24T20:27:06.623Z,19.90
2023-05-24T20:29:39.256Z,19.90
2023-05-24T20:32:12.143Z,19.90
2023-05-24T20:34:44.924Z,19.90
2023-05-24T20:37:17.574Z,19.90
2023-05-24T20:39:50.143Z,19.90
2023-05-24T20:42:22.777Z,19.90
2023-05-24T20:44:55.324Z,19.90
2023-05-24T20:47:30.152Z,19.90
2023-05-24T20:50:04.291Z,19.90
2023-05-24T20:52:37.026Z,19.90
2023-05-24T20:55:09.787Z,19.90
2023-05-24T20:57:42.773Z,19.90
2023-05-24T21:00:16.331Z,19.90
2023-05-24T21:02:48.996Z,19.90
2023-05-24T21:05:21.653Z,19.90
2023-05-24T21:07:54.227Z,19.90
2023-05-24T21:10:28.147Z,19.90
2023-05-24T21:13:00.818Z,19.90
2023-05-24T21:15:33.401Z,19.90
2023-05-24T21:18:06.319Z,19.90
2023-05-24T21:20:38.916Z,19.90
2023-05-24T21:23:11.648Z,19.90
2023-05-24T21:25:44.412Z,19.90
2023-05-24T21:28:17.194Z,19.90
2023-05-24T21:30:49.910Z,19.90
2023-05-24T21:33:22.585Z,19.90
2023-05-24T21:35:55.272Z,19.80
2023-05-24T21:38:27.854Z,19.80
2023-05-24T21:41:00.546Z,19.90
2023-05-24T21:43:33.252Z,19.80
2023-05-24T21:46:06.240Z,19.80
2023-05-24T21:48:38.645Z,19.90
2023-05-24T21:51:11.348Z,19.90
2023-05-24T21:53:43.984Z,19.80
2023-05-24T21:56:16.628Z,19.80
2023-05-24T21:58:49.169Z,19.90
2023-05-24T22:01:21.867Z,19.90
2023-05-24T22:03:54.913Z,19.90
2023-05-24T22:06:27.541Z,19.90
2023-05-24T22:09:02.234Z,19.80
2023-05-24T22:11:35.425Z,19.90
2023-05-24T22:14:07.862Z,19.80
2023-05-24T22:16:40.602Z,19.80
2023-05-24T22:19:16.898Z,19.80
2023-05-24T22:21:53.181Z,19.80
2023-05-24T22:24:26.755Z,19.80
2023-05-24T22:27:01.493Z,19.70
2023-05-24T22:29:34.129Z,19.80
2023-05-24T22:32:07.026Z,19.80
2023-05-24T22:34:39.807Z,19.80
2023-05-24T22:37:12.611Z,19.80
2023-05-24T22:39:45.596Z,19.80
2023-05-24T22:42:18.374Z,19.80
2023-05-24T22:44:51.161Z,19.80
2023-05-24T22:47:24.272Z,19.80
2023-05-24T22:49:56.692Z,19.80
2023-05-24T22:52:30.503Z,19.70
2023-05-24T22:55:03.708Z,19.70
2023-05-24T22:57:36.594Z,19.70
2023-05-24T23:00:09.925Z,19.70
2023-05-24T23:02:42.549Z,19.70
2023-05-24T23:05:16.969Z,19.70
2023-05-24T23:07:49.698Z,19.70
2023-05-24T23:10:22.347Z,19.70
2023-05-24T23:12:55.536Z,19.70
2023-05-24T23:15:29.252Z,19.60
2023-05-24T23:18:02.783Z,19.60
2023-05-24T23:20:36.485Z,19.60
2023-05-24T23:23:08.943Z,19.60
2023-05-24T23:25:41.736Z,19.60
2023-05-24T23:28:14.487Z,19.60
2023-05-24T23:30:47.042Z,19.60
2023-05-24T23:33:19.902Z,19.50
2023-05-24T23:35:52.419Z,19.50
2023-05-24T23:38:25.034Z,19.50
2023-05-24T23:40:57.566Z,19.50
2023-05-24T23:43:31.264Z,19.50
2023-05-24T23:46:03.938Z,19.50
2023-05-24T23:48:36.651Z,19.50
2023-05-24T23:51:10.498Z,19.50
2023-05-24T23:53:43.123Z,19.50
2023-05-24T23:56:15.935Z,19.50
2023-05-24T23:58:51.965Z,19.50
